sensor_id;sensor_type;location;lat;lon;timestamp;P1;durP1;ratioP1;P2;durP2;ratioP2
22017;SDS011;11173;51.050;7.108;2023-12-20T00:09:48;7.78;;;7.18;;
22017;SDS011;11173;51.050;7.108;2023-12-20T00:19:48;6.43;;;5.57;;
22017;SDS011;11173;51.050;7.108;2023-12-20T00:29:48;5.43;;;5.03;;
22017;SDS011;11173;51.050;7.108;2023-12-20T00:39:50;1.98;;;1.88;;
22017;SDS011;11173;51.050;7.108;2023-12-20T00:49:50;1.60;;;1.50;;
22017;SDS011;11173;51.050;7.108;2023-12-20T00:59:50;3.58;;;2.80;;
22017;SDS011;11173;51.050;7.108;2023-12-20T01:09:50;3.42;;;3.17;;
22017;SDS011;11173;51.050;7.108;2023-12-20T01:19:51;3.38;;;3.03;;
22017;SDS011;11173;51.050;7.108;2023-12-20T01:29:51;3.60;;;3.30;;
22017;SDS011;11173;51.050;7.108;2023-12-20T01:39:51;3.92;;;3.63;;
22017;SDS011;11173;51.050;7.108;2023-12-20T01:49:52;4.65;;;4.10;;
22017;SDS011;11173;51.050;7.108;2023-12-20T01:59:52;8.32;;;6.22;;
22017;SDS011;11173;51.050;7.108;2023-12-20T02:09:53;6.38;;;5.78;;
22017;SDS011;11173;51.050;7.108;2023-12-20T02:19:53;8.00;;;6.05;;
22017;SDS011;11173;51.050;7.108;2023-12-20T02:29:53;8.15;;;6.10;;
22017;SDS011;11173;51.050;7.108;2023-12-20T02:39:54;10.95;;;6.43;;
22017;SDS011;11173;51.050;7.108;2023-12-20T02:49:54;5.50;;;4.82;;
22017;SDS011;11173;51.050;7.108;2023-12-20T02:59:54;10.90;;;5.38;;
22017;SDS011;11173;51.050;7.108;2023-12-20T03:09:54;7.65;;;4.25;;
22017;SDS011;11173;51.050;7.108;2023-12-20T03:19:55;8.63;;;3.55;;
22017;SDS011;11173;51.050;7.108;2023-12-20T03:29:55;5.00;;;2.80;;
22017;SDS011;11173;51.050;7.108;2023-12-20T03:39:55;6.47;;;2.50;;
22017;SDS011;11173;51.050;7.108;2023-12-20T03:49:56;4.90;;;2.00;;
22017;SDS011;11173;51.050;7.108;2023-12-20T03:59:56;9.52;;;2.83;;
22017;SDS011;11173;51.050;7.108;2023-12-20T04:09:56;5.72;;;2.22;;
22017;SDS011;11173;51.050;7.108;2023-12-20T04:19:57;8.18;;;2.78;;
22017;SDS011;11173;51.050;7.108;2023-12-20T04:29:57;5.82;;;2.35;;
22017;SDS011;11173;51.050;7.108;2023-12-20T04:39:57;15.68;;;3.03;;
22017;SDS011;11173;51.050;7.108;2023-12-20T04:49:58;12.68;;;3.67;;
22017;SDS011;11173;51.050;7.108;2023-12-20T04:59:58;8.68;;;2.38;;
22017;SDS011;11173;51.050;7.108;2023-12-20T05:09:59;4.75;;;2.55;;
22017;SDS011;11173;51.050;7.108;2023-12-20T05:19:59;10.60;;;3.53;;
22017;SDS011;11173;51.050;7.108;2023-12-20T05:29:59;7.15;;;3.38;;
22017;SDS011;11173;51.050;7.108;2023-12-20T05:40:00;10.23;;;3.67;;
22017;SDS011;11173;51.050;7.108;2023-12-20T05:50:00;10.50;;;3.78;;
22017;SDS011;11173;51.050;7.108;2023-12-20T06:00:00;7.28;;;3.47;;
22017;SDS011;11173;51.050;7.108;2023-12-20T06:10:00;5.88;;;3.10;;
22017;SDS011;11173;51.050;7.108;2023-12-20T06:20:01;6.72;;;3.10;;
22017;SDS011;11173;51.050;7.108;2023-12-20T06:30:01;12.30;;;4.00;;
22017;SDS011;11173;51.050;7.108;2023-12-20T06:40:02;10.55;;;3.38;;
22017;SDS011;11173;51.050;7.108;2023-12-20T06:50:02;11.15;;;4.03;;
22017;SDS011;11173;51.050;7.108;2023-12-20T07:00:02;10.43;;;3.67;;
22017;SDS011;11173;51.050;7.108;2023-12-20T07:10:03;8.25;;;3.45;;
22017;SDS011;11173;51.050;7.108;2023-12-20T07:20:04;11.23;;;3.33;;
22017;SDS011;11173;51.050;7.108;2023-12-20T07:30:08;13.35;;;3.30;;
22017;SDS011;11173;51.050;7.108;2023-12-20T07:40:08;7.50;;;2.88;;
22017;SDS011;11173;51.050;7.108;2023-12-20T07:50:09;14.48;;;4.32;;
22017;SDS011;11173;51.050;7.108;2023-12-20T08:00:10;10.60;;;3.55;;
22017;SDS011;11173;51.050;7.108;2023-12-20T08:10:10;10.80;;;3.95;;
22017;SDS011;11173;51.050;7.108;2023-12-20T08:20:11;16.15;;;4.03;;
22017;SDS011;11173;51.050;7.108;2023-12-20T08:30:11;13.05;;;3.85;;
22017;SDS011;11173;51.050;7.108;2023-12-20T08:40:12;10.55;;;3.65;;
22017;SDS011;11173;51.050;7.108;2023-12-20T08:50:12;11.27;;;3.55;;
22017;SDS011;11173;51.050;7.108;2023-12-20T09:00:13;12.32;;;4.00;;
22017;SDS011;11173;51.050;7.108;2023-12-20T09:10:13;10.48;;;3.58;;
22017;SDS011;11173;51.050;7.108;2023-12-20T09:20:14;14.70;;;3.90;;
22017;SDS011;11173;51.050;7.108;2023-12-20T09:30:14;13.45;;;4.10;;
22017;SDS011;11173;51.050;7.108;2023-12-20T09:40:14;9.70;;;3.33;;
22017;SDS011;11173;51.050;7.108;2023-12-20T09:50:18;14.85;;;3.63;;
22017;SDS011;11173;51.050;7.108;2023-12-20T10:00:19;8.85;;;3.15;;
22017;SDS011;11173;51.050;7.108;2023-12-20T10:10:19;14.57;;;3.50;;
22017;SDS011;11173;51.050;7.108;2023-12-20T10:20:20;10.75;;;3.80;;
22017;SDS011;11173;51.050;7.108;2023-12-20T10:30:20;11.13;;;3.22;;
22017;SDS011;11173;51.050;7.108;2023-12-20T10:40:20;8.35;;;3.40;;
22017;SDS011;11173;51.050;7.108;2023-12-20T10:50:21;8.23;;;2.67;;
22017;SDS011;11173;51.050;7.108;2023-12-20T11:00:21;12.65;;;3.33;;
22017;SDS011;11173;51.050;7.108;2023-12-20T11:10:24;10.45;;;2.92;;
22017;SDS011;11173;51.050;7.108;2023-12-20T11:20:41;10.48;;;2.70;;
22017;SDS011;11173;51.050;7.108;2023-12-20T11:30:48;9.82;;;2.80;;
22017;SDS011;11173;51.050;7.108;2023-12-20T11:40:50;7.97;;;2.95;;
22017;SDS011;11173;51.050;7.108;2023-12-20T11:50:53;14.40;;;3.25;;
22017;SDS011;11173;51.050;7.108;2023-12-20T12:00:53;7.90;;;2.90;;
22017;SDS011;11173;51.050;7.108;2023-12-20T12:10:53;9.60;;;2.88;;
22017;SDS011;11173;51.050;7.108;2023-12-20T12:20:59;18.48;;;3.42;;
22017;SDS011;11173;51.050;7.108;2023-12-20T12:31:00;8.40;;;2.60;;
22017;SDS011;11173;51.050;7.108;2023-12-20T12:41:00;7.43;;;3.08;;
22017;SDS011;11173;51.050;7.108;2023-12-20T12:51:00;10.70;;;3.40;;
22017;SDS011;11173;51.050;7.108;2023-12-20T13:01:00;13.65;;;3.83;;
22017;SDS011;11173;51.050;7.108;2023-12-20T13:11:01;11.40;;;3.80;;
22017;SDS011;11173;51.050;7.108;2023-12-20T13:21:04;6.32;;;3.00;;
22017;SDS011;11173;51.050;7.108;2023-12-20T13:31:04;14.00;;;4.15;;
22017;SDS011;11173;51.050;7.108;2023-12-20T13:41:05;11.07;;;3.45;;
22017;SDS011;11173;51.050;7.108;2023-12-20T13:51:05;8.10;;;3.60;;
22017;SDS011;11173;51.050;7.108;2023-12-20T14:01:06;12.02;;;4.20;;
22017;SDS011;11173;51.050;7.108;2023-12-20T14:11:06;10.50;;;3.75;;
22017;SDS011;11173;51.050;7.108;2023-12-20T14:21:07;9.27;;;3.33;;
22017;SDS011;11173;51.050;7.108;2023-12-20T14:31:07;9.88;;;3.22;;
22017;SDS011;11173;51.050;7.108;2023-12-20T14:41:08;5.70;;;2.72;;
22017;SDS011;11173;51.050;7.108;2023-12-20T14:51:08;11.02;;;2.47;;
22017;SDS011;11173;51.050;7.108;2023-12-20T15:01:09;10.35;;;3.15;;
22017;SDS011;11173;51.050;7.108;2023-12-20T15:11:10;3.83;;;2.15;;
22017;SDS011;11173;51.050;7.108;2023-12-20T15:21:10;10.65;;;3.03;;
22017;SDS011;11173;51.050;7.108;2023-12-20T15:31:10;5.22;;;2.97;;
22017;SDS011;11173;51.050;7.108;2023-12-20T15:41:20;5.70;;;2.17;;
22017;SDS011;11173;51.050;7.108;2023-12-20T15:51:21;7.38;;;2.75;;
22017;SDS011;11173;51.050;7.108;2023-12-20T16:01:22;8.73;;;3.10;;
22017;SDS011;11173;51.050;7.108;2023-12-20T16:11:22;8.82;;;3.40;;
22017;SDS011;11173;51.050;7.108;2023-12-20T16:21:22;7.63;;;3.13;;
22017;SDS011;11173;51.050;7.108;2023-12-20T16:31:22;6.97;;;3.88;;
22017;SDS011;11173;51.050;7.108;2023-12-20T16:41:23;10.93;;;4.60;;
22017;SDS011;11173;51.050;7.108;2023-12-20T16:51:23;10.95;;;4.30;;
22017;SDS011;11173;51.050;7.108;2023-12-20T17:01:23;8.68;;;4.82;;
22017;SDS011;11173;51.050;7.108;2023-12-20T17:11:25;12.85;;;4.22;;
22017;SDS011;11173;51.050;7.108;2023-12-20T17:21:26;12.73;;;4.13;;
22017;SDS011;11173;51.050;7.108;2023-12-20T17:31:26;11.05;;;4.85;;
22017;SDS011;11173;51.050;7.108;2023-12-20T17:41:26;12.68;;;4.80;;
22017;SDS011;11173;51.050;7.108;2023-12-20T17:51:26;8.02;;;4.75;;
22017;SDS011;11173;51.050;7.108;2023-12-20T18:01:27;13.95;;;5.90;;
22017;SDS011;11173;51.050;7.108;2023-12-20T18:11:27;10.30;;;5.93;;
22017;SDS011;11173;51.050;7.108;2023-12-20T18:21:27;9.80;;;5.28;;
22017;SDS011;11173;51.050;7.108;2023-12-20T18:31:28;12.82;;;5.00;;
22017;SDS011;11173;51.050;7.108;2023-12-20T18:41:28;9.15;;;4.32;;
22017;SDS011;11173;51.050;7.108;2023-12-20T18:51:28;6.40;;;3.67;;
22017;SDS011;11173;51.050;7.108;2023-12-20T19:01:28;5.93;;;2.95;;
22017;SDS011;11173;51.050;7.108;2023-12-20T19:11:29;6.35;;;2.90;;
22017;SDS011;11173;51.050;7.108;2023-12-20T19:21:29;6.93;;;2.72;;
22017;SDS011;11173;51.050;7.108;2023-12-20T19:31:29;10.07;;;3.53;;
22017;SDS011;11173;51.050;7.108;2023-12-20T19:41:29;5.50;;;3.00;;
22017;SDS011;11173;51.050;7.108;2023-12-20T19:51:30;7.28;;;3.03;;
22017;SDS011;11173;51.050;7.108;2023-12-20T20:01:30;4.00;;;2.55;;
22017;SDS011;11173;51.050;7.108;2023-12-20T20:11:30;6.45;;;3.00;;
22017;SDS011;11173;51.050;7.108;2023-12-20T20:21:31;9.20;;;3.03;;
22017;SDS011;11173;51.050;7.108;2023-12-20T20:31:31;6.70;;;2.30;;
22017;SDS011;11173;51.050;7.108;2023-12-20T20:41:33;3.92;;;2.90;;
22017;SDS011;11173;51.050;7.108;2023-12-20T20:51:34;6.72;;;2.47;;
22017;SDS011;11173;51.050;7.108;2023-12-20T21:01:34;6.53;;;2.35;;
22017;SDS011;11173;51.050;7.108;2023-12-20T21:11:34;6.72;;;2.72;;
22017;SDS011;11173;51.050;7.108;2023-12-20T21:21:35;3.30;;;1.85;;
22017;SDS011;11173;51.050;7.108;2023-12-20T21:31:35;6.00;;;2.33;;
22017;SDS011;11173;51.050;7.108;2023-12-20T21:41:35;6.68;;;3.20;;
22017;SDS011;11173;51.050;7.108;2023-12-20T21:51:36;6.18;;;2.83;;
22017;SDS011;11173;51.050;7.108;2023-12-20T22:01:39;3.80;;;2.25;;
22017;SDS011;11173;51.050;7.108;2023-12-20T22:11:40;7.05;;;2.53;;
22017;SDS011;11173;51.050;7.108;2023-12-20T22:21:40;10.70;;;2.85;;
22017;SDS011;11173;51.050;7.108;2023-12-20T22:31:41;5.53;;;2.60;;
22017;SDS011;11173;51.050;7.108;2023-12-20T22:41:41;6.07;;;3.05;;
22017;SDS011;11173;51.050;7.108;2023-12-20T22:51:43;5.82;;;2.20;;
22017;SDS011;11173;51.050;7.108;2023-12-20T23:01:44;4.65;;;2.42;;
22017;SDS011;11173;51.050;7.108;2023-12-20T23:11:44;2.53;;;2.33;;
22017;SDS011;11173;51.050;7.108;2023-12-20T23:21:44;2.50;;;2.10;;
22017;SDS011;11173;51.050;7.108;2023-12-20T23:31:45;3.55;;;2.30;;
22017;SDS011;11173;51.050;7.108;2023-12-20T23:41:45;3.08;;;2.10;;
22017;SDS011;11173;51.050;7.108;2023-12-20T23:51:45;2.75;;;2.47;;
